sensor_id;sensor_type;location;lat;lon;timestamp;P1;durP1;ratioP1;P2;durP2;ratioP2
55537;SDS011;41383;51.418;7.286;2023-07-20T00:02:03;12.10;;;11.00;;
55537;SDS011;41383;51.418;7.286;2023-07-20T00:04:30;10.45;;;8.98;;
55537;SDS011;41383;51.418;7.286;2023-07-20T00:06:55;12.38;;;9.93;;
55537;SDS011;41383;51.418;7.286;2023-07-20T00:09:21;12.50;;;8.40;;
55537;SDS011;41383;51.418;7.286;2023-07-20T00:11:50;10.05;;;9.00;;
55537;SDS011;41383;51.418;7.286;2023-07-20T00:14:16;77.50;;;11.63;;
55537;SDS011;41383;51.418;7.286;2023-07-20T00:16:43;11.07;;;8.88;;
55537;SDS011;41383;51.418;7.286;2023-07-20T00:19:08;12.35;;;10.38;;
55537;SDS011;41383;51.418;7.286;2023-07-20T00:21:34;13.05;;;11.75;;
55537;SDS011;41383;51.418;7.286;2023-07-20T00:23:59;10.52;;;9.50;;
55537;SDS011;41383;51.418;7.286;2023-07-20T00:26:24;10.02;;;7.32;;
55537;SDS011;41383;51.418;7.286;2023-07-20T00:28:50;11.55;;;8.63;;
55537;SDS011;41383;51.418;7.286;2023-07-20T00:31:16;20.10;;;16.55;;
55537;SDS011;41383;51.418;7.286;2023-07-20T00:33:41;16.83;;;13.88;;
55537;SDS011;41383;51.418;7.286;2023-07-20T00:36:06;12.57;;;11.27;;
55537;SDS011;41383;51.418;7.286;2023-07-20T00:38:32;19.75;;;18.13;;
55537;SDS011;41383;51.418;7.286;2023-07-20T00:40:57;17.63;;;15.93;;
55537;SDS011;41383;51.418;7.286;2023-07-20T00:43:23;12.07;;;10.03;;
55537;SDS011;41383;51.418;7.286;2023-07-20T00:45:48;11.87;;;8.67;;
55537;SDS011;41383;51.418;7.286;2023-07-20T00:48:14;11.25;;;10.00;;
55537;SDS011;41383;51.418;7.286;2023-07-20T00:50:39;16.92;;;15.48;;
55537;SDS011;41383;51.418;7.286;2023-07-20T00:53:05;14.77;;;13.57;;
55537;SDS011;41383;51.418;7.286;2023-07-20T00:55:32;10.02;;;8.75;;
55537;SDS011;41383;51.418;7.286;2023-07-20T00:57:57;11.27;;;8.02;;
55537;SDS011;41383;51.418;7.286;2023-07-20T01:00:24;12.88;;;11.63;;
55537;SDS011;41383;51.418;7.286;2023-07-20T01:02:49;15.23;;;13.20;;
55537;SDS011;41383;51.418;7.286;2023-07-20T01:05:15;12.18;;;10.90;;
55537;SDS011;41383;51.418;7.286;2023-07-20T01:07:52;12.00;;;10.63;;
55537;SDS011;41383;51.418;7.286;2023-07-20T01:10:33;13.88;;;10.90;;
55537;SDS011;41383;51.418;7.286;2023-07-20T01:13:00;13.38;;;11.98;;
55537;SDS011;41383;51.418;7.286;2023-07-20T01:15:27;19.25;;;17.60;;
55537;SDS011;41383;51.418;7.286;2023-07-20T01:17:52;25.77;;;10.82;;
55537;SDS011;41383;51.418;7.286;2023-07-20T01:20:18;25.45;;;23.77;;
55537;SDS011;41383;51.418;7.286;2023-07-20T01:31:21;23.85;;;22.00;;
55537;SDS011;41383;51.418;7.286;2023-07-20T01:33:50;110.68;;;105.38;;
55537;SDS011;41383;51.418;7.286;2023-07-20T01:36:17;18.10;;;16.60;;
55537;SDS011;41383;51.418;7.286;2023-07-20T01:38:44;21.20;;;19.48;;
55537;SDS011;41383;51.418;7.286;2023-07-20T01:41:11;59.72;;;56.63;;
55537;SDS011;41383;51.418;7.286;2023-07-20T01:43:37;45.35;;;41.30;;
55537;SDS011;41383;51.418;7.286;2023-07-20T01:46:02;30.15;;;28.05;;
55537;SDS011;41383;51.418;7.286;2023-07-20T01:48:27;30.27;;;28.35;;
55537;SDS011;41383;51.418;7.286;2023-07-20T01:50:53;20.63;;;18.88;;
55537;SDS011;41383;51.418;7.286;2023-07-20T01:53:19;44.28;;;41.88;;
55537;SDS011;41383;51.418;7.286;2023-07-20T01:55:45;37.75;;;35.38;;
55537;SDS011;41383;51.418;7.286;2023-07-20T01:58:10;63.23;;;60.00;;
55537;SDS011;41383;51.418;7.286;2023-07-20T02:00:37;87.60;;;83.05;;
55537;SDS011;41383;51.418;7.286;2023-07-20T02:03:02;65.75;;;62.20;;
55537;SDS011;41383;51.418;7.286;2023-07-20T02:05:27;97.20;;;93.00;;
55537;SDS011;41383;51.418;7.286;2023-07-20T02:07:53;45.90;;;43.25;;
55537;SDS011;41383;51.418;7.286;2023-07-20T02:10:18;75.27;;;71.83;;
55537;SDS011;41383;51.418;7.286;2023-07-20T02:12:44;62.70;;;59.85;;
55537;SDS011;41383;51.418;7.286;2023-07-20T02:15:09;78.32;;;74.85;;
55537;SDS011;41383;51.418;7.286;2023-07-20T02:17:36;76.97;;;73.40;;
55537;SDS011;41383;51.418;7.286;2023-07-20T02:20:02;87.95;;;84.10;;
55537;SDS011;41383;51.418;7.286;2023-07-20T02:22:28;57.63;;;54.78;;
55537;SDS011;41383;51.418;7.286;2023-07-20T02:24:53;77.90;;;74.38;;
55537;SDS011;41383;51.418;7.286;2023-07-20T02:27:18;57.50;;;53.63;;
55537;SDS011;41383;51.418;7.286;2023-07-20T02:29:44;95.38;;;91.22;;
55537;SDS011;41383;51.418;7.286;2023-07-20T02:32:09;104.95;;;100.40;;
55537;SDS011;41383;51.418;7.286;2023-07-20T02:34:35;69.60;;;66.32;;
55537;SDS011;41383;51.418;7.286;2023-07-20T02:37:01;99.28;;;95.13;;
55537;SDS011;41383;51.418;7.286;2023-07-20T02:39:29;82.15;;;77.85;;
55537;SDS011;41383;51.418;7.286;2023-07-20T02:41:55;80.53;;;76.93;;
55537;SDS011;41383;51.418;7.286;2023-07-20T02:44:20;65.03;;;61.97;;
55537;SDS011;41383;51.418;7.286;2023-07-20T02:46:46;63.37;;;60.37;;
55537;SDS011;41383;51.418;7.286;2023-07-20T02:49:11;55.63;;;52.88;;
55537;SDS011;41383;51.418;7.286;2023-07-20T02:51:36;55.88;;;53.17;;
55537;SDS011;41383;51.418;7.286;2023-07-20T02:54:02;62.40;;;59.47;;
55537;SDS011;41383;51.418;7.286;2023-07-20T02:56:28;78.50;;;74.80;;
55537;SDS011;41383;51.418;7.286;2023-07-20T02:58:53;70.22;;;67.07;;
55537;SDS011;41383;51.418;7.286;2023-07-20T03:01:19;42.90;;;40.35;;
55537;SDS011;41383;51.418;7.286;2023-07-20T03:03:44;27.30;;;24.50;;
55537;SDS011;41383;51.418;7.286;2023-07-20T03:06:15;38.90;;;36.58;;
55537;SDS011;41383;51.418;7.286;2023-07-20T03:08:41;83.72;;;79.85;;
55537;SDS011;41383;51.418;7.286;2023-07-20T03:11:12;40.90;;;38.55;;
55537;SDS011;41383;51.418;7.286;2023-07-20T03:13:39;104.38;;;99.95;;
55537;SDS011;41383;51.418;7.286;2023-07-20T03:16:04;31.83;;;29.50;;
55537;SDS011;41383;51.418;7.286;2023-07-20T03:18:29;58.38;;;55.17;;
55537;SDS011;41383;51.418;7.286;2023-07-20T03:20:55;71.37;;;67.97;;
55537;SDS011;41383;51.418;7.286;2023-07-20T03:23:20;73.20;;;69.57;;
55537;SDS011;41383;51.418;7.286;2023-07-20T03:25:45;58.63;;;55.72;;
55537;SDS011;41383;51.418;7.286;2023-07-20T03:28:10;44.53;;;42.10;;
55537;SDS011;41383;51.418;7.286;2023-07-20T03:30:36;63.13;;;59.90;;
55537;SDS011;41383;51.418;7.286;2023-07-20T03:33:02;45.77;;;43.30;;
55537;SDS011;41383;51.418;7.286;2023-07-20T03:35:28;62.08;;;58.67;;
55537;SDS011;41383;51.418;7.286;2023-07-20T03:37:53;60.78;;;57.90;;
55537;SDS011;41383;51.418;7.286;2023-07-20T03:40:18;55.97;;;53.30;;
55537;SDS011;41383;51.418;7.286;2023-07-20T03:42:43;57.77;;;53.50;;
55537;SDS011;41383;51.418;7.286;2023-07-20T03:45:09;48.43;;;45.80;;
55537;SDS011;41383;51.418;7.286;2023-07-20T03:47:34;77.18;;;73.22;;
55537;SDS011;41383;51.418;7.286;2023-07-20T03:50:00;59.10;;;55.80;;
55537;SDS011;41383;51.418;7.286;2023-07-20T03:52:25;52.20;;;49.40;;
55537;SDS011;41383;51.418;7.286;2023-07-20T03:54:50;59.28;;;56.30;;
55537;SDS011;41383;51.418;7.286;2023-07-20T03:57:16;65.90;;;62.65;;
55537;SDS011;41383;51.418;7.286;2023-07-20T03:59:44;52.72;;;49.92;;
55537;SDS011;41383;51.418;7.286;2023-07-20T04:02:11;62.60;;;59.45;;
55537;SDS011;41383;51.418;7.286;2023-07-20T04:04:36;64.40;;;60.97;;
55537;SDS011;41383;51.418;7.286;2023-07-20T04:07:01;87.83;;;83.67;;
55537;SDS011;41383;51.418;7.286;2023-07-20T04:09:27;59.25;;;56.08;;
55537;SDS011;41383;51.418;7.286;2023-07-20T04:11:52;74.23;;;70.87;;
55537;SDS011;41383;51.418;7.286;2023-07-20T04:14:17;70.97;;;67.63;;
55537;SDS011;41383;51.418;7.286;2023-07-20T04:16:42;72.53;;;68.70;;
55537;SDS011;41383;51.418;7.286;2023-07-20T04:19:08;72.47;;;68.83;;
55537;SDS011;41383;51.418;7.286;2023-07-20T04:21:39;88.80;;;84.97;;
55537;SDS011;41383;51.418;7.286;2023-07-20T04:24:07;89.18;;;85.00;;
55537;SDS011;41383;51.418;7.286;2023-07-20T04:26:32;86.63;;;82.93;;
55537;SDS011;41383;51.418;7.286;2023-07-20T04:28:57;86.72;;;82.90;;
55537;SDS011;41383;51.418;7.286;2023-07-20T04:31:24;82.30;;;77.88;;
55537;SDS011;41383;51.418;7.286;2023-07-20T04:33:49;65.95;;;62.67;;
55537;SDS011;41383;51.418;7.286;2023-07-20T04:36:15;108.95;;;104.38;;
55537;SDS011;41383;51.418;7.286;2023-07-20T04:38:44;47.58;;;45.08;;
55537;SDS011;41383;51.418;7.286;2023-07-20T04:41:10;61.88;;;58.88;;
55537;SDS011;41383;51.418;7.286;2023-07-20T04:43:37;47.40;;;44.03;;
55537;SDS011;41383;51.418;7.286;2023-07-20T04:46:06;61.72;;;58.83;;
55537;SDS011;41383;51.418;7.286;2023-07-20T04:48:31;54.93;;;51.20;;
55537;SDS011;41383;51.418;7.286;2023-07-20T04:50:57;49.88;;;47.25;;
55537;SDS011;41383;51.418;7.286;2023-07-20T04:53:22;59.93;;;56.60;;
55537;SDS011;41383;51.418;7.286;2023-07-20T04:55:48;52.30;;;49.03;;
55537;SDS011;41383;51.418;7.286;2023-07-20T04:58:19;68.40;;;64.95;;
55537;SDS011;41383;51.418;7.286;2023-07-20T05:00:45;60.85;;;57.53;;
55537;SDS011;41383;51.418;7.286;2023-07-20T05:03:11;74.50;;;70.93;;
55537;SDS011;41383;51.418;7.286;2023-07-20T05:05:36;74.22;;;70.55;;
55537;SDS011;41383;51.418;7.286;2023-07-20T05:08:03;59.03;;;55.47;;
55537;SDS011;41383;51.418;7.286;2023-07-20T05:10:29;74.07;;;70.15;;
55537;SDS011;41383;51.418;7.286;2023-07-20T05:12:54;44.90;;;42.20;;
55537;SDS011;41383;51.418;7.286;2023-07-20T05:15:19;54.27;;;51.17;;
55537;SDS011;41383;51.418;7.286;2023-07-20T05:17:44;54.55;;;51.30;;
55537;SDS011;41383;51.418;7.286;2023-07-20T05:20:10;64.97;;;61.35;;
55537;SDS011;41383;51.418;7.286;2023-07-20T05:22:37;76.93;;;72.82;;
55537;SDS011;41383;51.418;7.286;2023-07-20T05:25:04;60.80;;;57.50;;
55537;SDS011;41383;51.418;7.286;2023-07-20T05:27:35;78.85;;;74.70;;
55537;SDS011;41383;51.418;7.286;2023-07-20T05:30:01;75.38;;;71.40;;
55537;SDS011;41383;51.418;7.286;2023-07-20T05:32:27;58.42;;;55.17;;
55537;SDS011;41383;51.418;7.286;2023-07-20T05:34:53;57.67;;;54.30;;
55537;SDS011;41383;51.418;7.286;2023-07-20T05:37:19;80.30;;;76.10;;
55537;SDS011;41383;51.418;7.286;2023-07-20T05:39:45;68.93;;;65.05;;
55537;SDS011;41383;51.418;7.286;2023-07-20T05:42:10;75.27;;;71.13;;
55537;SDS011;41383;51.418;7.286;2023-07-20T05:44:35;72.10;;;67.37;;
55537;SDS011;41383;51.418;7.286;2023-07-20T05:47:00;54.17;;;50.33;;
55537;SDS011;41383;51.418;7.286;2023-07-20T05:49:27;61.70;;;57.83;;
55537;SDS011;41383;51.418;7.286;2023-07-20T05:51:52;54.22;;;50.92;;
55537;SDS011;41383;51.418;7.286;2023-07-20T05:54:18;57.63;;;54.58;;
55537;SDS011;41383;51.418;7.286;2023-07-20T05:56:45;38.55;;;35.90;;
55537;SDS011;41383;51.418;7.286;2023-07-20T05:59:10;49.95;;;46.90;;
55537;SDS011;41383;51.418;7.286;2023-07-20T06:01:36;25.90;;;23.77;;
55537;SDS011;41383;51.418;7.286;2023-07-20T06:04:01;57.88;;;54.45;;
55537;SDS011;41383;51.418;7.286;2023-07-20T06:06:28;35.58;;;33.00;;
55537;SDS011;41383;51.418;7.286;2023-07-20T06:08:53;56.65;;;53.53;;
55537;SDS011;41383;51.418;7.286;2023-07-20T06:11:19;43.38;;;40.28;;
55537;SDS011;41383;51.418;7.286;2023-07-20T06:13:45;31.55;;;29.38;;
55537;SDS011;41383;51.418;7.286;2023-07-20T06:16:10;35.67;;;33.22;;
55537;SDS011;41383;51.418;7.286;2023-07-20T06:18:36;18.88;;;16.67;;
55537;SDS011;41383;51.418;7.286;2023-07-20T06:21:01;59.03;;;55.57;;
55537;SDS011;41383;51.418;7.286;2023-07-20T06:23:26;35.30;;;32.88;;
55537;SDS011;41383;51.418;7.286;2023-07-20T06:25:51;26.42;;;24.05;;
55537;SDS011;41383;51.418;7.286;2023-07-20T06:28:17;34.65;;;31.92;;
55537;SDS011;41383;51.418;7.286;2023-07-20T06:30:43;57.55;;;54.63;;
55537;SDS011;41383;51.418;7.286;2023-07-20T06:33:08;34.03;;;31.52;;
55537;SDS011;41383;51.418;7.286;2023-07-20T06:35:34;60.20;;;57.10;;
55537;SDS011;41383;51.418;7.286;2023-07-20T06:38:00;29.85;;;27.75;;
55537;SDS011;41383;51.418;7.286;2023-07-20T06:40:26;29.88;;;27.75;;
55537;SDS011;41383;51.418;7.286;2023-07-20T06:42:51;24.73;;;22.95;;
55537;SDS011;41383;51.418;7.286;2023-07-20T06:45:16;39.57;;;37.07;;
55537;SDS011;41383;51.418;7.286;2023-07-20T06:47:42;36.42;;;34.17;;
55537;SDS011;41383;51.418;7.286;2023-07-20T06:50:07;47.38;;;44.67;;
55537;SDS011;41383;51.418;7.286;2023-07-20T06:52:33;23.98;;;21.92;;
55537;SDS011;41383;51.418;7.286;2023-07-20T06:54:59;39.53;;;37.10;;
55537;SDS011;41383;51.418;7.286;2023-07-20T06:57:25;35.88;;;33.03;;
55537;SDS011;41383;51.418;7.286;2023-07-20T06:59:50;20.85;;;18.95;;
55537;SDS011;41383;51.418;7.286;2023-07-20T07:02:16;57.75;;;54.65;;
55537;SDS011;41383;51.418;7.286;2023-07-20T07:04:41;18.15;;;16.50;;
55537;SDS011;41383;51.418;7.286;2023-07-20T07:07:07;29.27;;;27.13;;
55537;SDS011;41383;51.418;7.286;2023-07-20T07:09:32;35.17;;;32.90;;
55537;SDS011;41383;51.418;7.286;2023-07-20T07:11:58;43.08;;;40.72;;
55537;SDS011;41383;51.418;7.286;2023-07-20T07:14:23;43.60;;;41.15;;
55537;SDS011;41383;51.418;7.286;2023-07-20T07:16:49;60.97;;;57.90;;
55537;SDS011;41383;51.418;7.286;2023-07-20T07:19:14;48.17;;;45.50;;
55537;SDS011;41383;51.418;7.286;2023-07-20T07:21:39;53.40;;;50.80;;
55537;SDS011;41383;51.418;7.286;2023-07-20T07:24:05;38.42;;;36.30;;
55537;SDS011;41383;51.418;7.286;2023-07-20T07:26:32;44.20;;;41.72;;
55537;SDS011;41383;51.418;7.286;2023-07-20T07:28:57;40.55;;;38.30;;
55537;SDS011;41383;51.418;7.286;2023-07-20T07:31:22;49.23;;;46.57;;
55537;SDS011;41383;51.418;7.286;2023-07-20T07:33:50;41.05;;;38.83;;
55537;SDS011;41383;51.418;7.286;2023-07-20T07:36:15;32.08;;;30.15;;
55537;SDS011;41383;51.418;7.286;2023-07-20T07:38:40;26.75;;;25.15;;
55537;SDS011;41383;51.418;7.286;2023-07-20T07:41:06;51.93;;;48.93;;
55537;SDS011;41383;51.418;7.286;2023-07-20T07:43:31;55.53;;;53.08;;
55537;SDS011;41383;51.418;7.286;2023-07-20T07:45:56;49.17;;;46.85;;
55537;SDS011;41383;51.418;7.286;2023-07-20T07:48:22;46.20;;;44.17;;
55537;SDS011;41383;51.418;7.286;2023-07-20T07:50:47;60.60;;;57.97;;
55537;SDS011;41383;51.418;7.286;2023-07-20T07:53:13;33.38;;;31.65;;
55537;SDS011;41383;51.418;7.286;2023-07-20T07:55:38;44.05;;;42.05;;
55537;SDS011;41383;51.418;7.286;2023-07-20T07:58:03;33.53;;;31.75;;
55537;SDS011;41383;51.418;7.286;2023-07-20T08:00:29;79.90;;;76.50;;
55537;SDS011;41383;51.418;7.286;2023-07-20T08:02:54;68.57;;;65.72;;
55537;SDS011;41383;51.418;7.286;2023-07-20T08:05:20;96.72;;;92.95;;
55537;SDS011;41383;51.418;7.286;2023-07-20T08:07:45;30.15;;;28.35;;
55537;SDS011;41383;51.418;7.286;2023-07-20T08:10:10;15.23;;;14.00;;
55537;SDS011;41383;51.418;7.286;2023-07-20T08:12:36;11.63;;;9.38;;
55537;SDS011;41383;51.418;7.286;2023-07-20T08:15:01;9.53;;;8.23;;
55537;SDS011;41383;51.418;7.286;2023-07-20T08:17:26;9.68;;;8.75;;
55537;SDS011;41383;51.418;7.286;2023-07-20T08:19:52;16.77;;;15.37;;
55537;SDS011;41383;51.418;7.286;2023-07-20T08:22:17;10.67;;;9.67;;
55537;SDS011;41383;51.418;7.286;2023-07-20T08:24:43;9.70;;;8.77;;
55537;SDS011;41383;51.418;7.286;2023-07-20T08:27:08;8.13;;;6.70;;
55537;SDS011;41383;51.418;7.286;2023-07-20T08:29:34;8.52;;;7.80;;
55537;SDS011;41383;51.418;7.286;2023-07-20T08:32:00;7.60;;;6.65;;
55537;SDS011;41383;51.418;7.286;2023-07-20T08:34:26;6.80;;;6.10;;
55537;SDS011;41383;51.418;7.286;2023-07-20T08:36:51;7.20;;;6.50;;
55537;SDS011;41383;51.418;7.286;2023-07-20T08:39:17;7.03;;;5.83;;
55537;SDS011;41383;51.418;7.286;2023-07-20T08:41:43;5.50;;;5.10;;
55537;SDS011;41383;51.418;7.286;2023-07-20T08:44:08;4.80;;;4.38;;
55537;SDS011;41383;51.418;7.286;2023-07-20T08:46:35;7.13;;;6.32;;
55537;SDS011;41383;51.418;7.286;2023-07-20T08:49:03;7.60;;;6.85;;
55537;SDS011;41383;51.418;7.286;2023-07-20T08:51:29;8.73;;;7.93;;
55537;SDS011;41383;51.418;7.286;2023-07-20T08:53:55;6.65;;;6.05;;
55537;SDS011;41383;51.418;7.286;2023-07-20T08:56:21;7.38;;;6.53;;
55537;SDS011;41383;51.418;7.286;2023-07-20T08:58:50;6.35;;;5.75;;
55537;SDS011;41383;51.418;7.286;2023-07-20T09:01:18;6.85;;;5.95;;
55537;SDS011;41383;51.418;7.286;2023-07-20T09:03:44;8.75;;;7.95;;
55537;SDS011;41383;51.418;7.286;2023-07-20T09:06:11;7.22;;;6.53;;
55537;SDS011;41383;51.418;7.286;2023-07-20T09:08:40;9.50;;;7.85;;
55537;SDS011;41383;51.418;7.286;2023-07-20T09:11:06;12.93;;;11.50;;
55537;SDS011;41383;51.418;7.286;2023-07-20T09:13:35;8.95;;;6.78;;
55537;SDS011;41383;51.418;7.286;2023-07-20T09:16:00;7.45;;;6.40;;
55537;SDS011;41383;51.418;7.286;2023-07-20T09:18:29;11.35;;;10.40;;
55537;SDS011;41383;51.418;7.286;2023-07-20T09:21:03;11.65;;;10.65;;
55537;SDS011;41383;51.418;7.286;2023-07-20T09:23:36;9.88;;;8.98;;
55537;SDS011;41383;51.418;7.286;2023-07-20T09:26:10;6.70;;;6.15;;
55537;SDS011;41383;51.418;7.286;2023-07-20T09:28:42;7.65;;;6.95;;
55537;SDS011;41383;51.418;7.286;2023-07-20T09:31:15;9.10;;;8.32;;
55537;SDS011;41383;51.418;7.286;2023-07-20T09:33:42;8.15;;;7.35;;
55537;SDS011;41383;51.418;7.286;2023-07-20T09:36:09;9.77;;;8.87;;
55537;SDS011;41383;51.418;7.286;2023-07-20T09:38:36;8.63;;;7.82;;
55537;SDS011;41383;51.418;7.286;2023-07-20T09:41:01;10.02;;;6.70;;
55537;SDS011;41383;51.418;7.286;2023-07-20T09:43:30;8.77;;;7.22;;
55537;SDS011;41383;51.418;7.286;2023-07-20T09:45:57;9.15;;;8.35;;
55537;SDS011;41383;51.418;7.286;2023-07-20T09:48:24;9.20;;;6.88;;
55537;SDS011;41383;51.418;7.286;2023-07-20T09:50:50;8.73;;;7.95;;
55537;SDS011;41383;51.418;7.286;2023-07-20T09:53:16;9.70;;;8.95;;
55537;SDS011;41383;51.418;7.286;2023-07-20T09:55:43;11.10;;;10.20;;
55537;SDS011;41383;51.418;7.286;2023-07-20T09:58:09;7.68;;;7.05;;
55537;SDS011;41383;51.418;7.286;2023-07-20T10:00:38;7.20;;;6.25;;
55537;SDS011;41383;51.418;7.286;2023-07-20T10:03:05;8.55;;;7.63;;
55537;SDS011;41383;51.418;7.286;2023-07-20T10:05:34;8.68;;;7.90;;
55537;SDS011;41383;51.418;7.286;2023-07-20T10:08:02;9.10;;;6.78;;
55537;SDS011;41383;51.418;7.286;2023-07-20T10:10:29;8.68;;;7.75;;
55537;SDS011;41383;51.418;7.286;2023-07-20T10:12:57;15.25;;;14.15;;
55537;SDS011;41383;51.418;7.286;2023-07-20T10:15:32;13.68;;;12.52;;
55537;SDS011;41383;51.418;7.286;2023-07-20T10:18:07;23.65;;;22.38;;
55537;SDS011;41383;51.418;7.286;2023-07-20T10:20:36;21.98;;;20.60;;
55537;SDS011;41383;51.418;7.286;2023-07-20T10:23:06;19.85;;;18.45;;
55537;SDS011;41383;51.418;7.286;2023-07-20T10:25:32;19.55;;;18.23;;
55537;SDS011;41383;51.418;7.286;2023-07-20T10:28:02;21.77;;;20.52;;
55537;SDS011;41383;51.418;7.286;2023-07-20T10:30:29;31.15;;;29.55;;
55537;SDS011;41383;51.418;7.286;2023-07-20T10:32:55;17.50;;;16.40;;
55537;SDS011;41383;51.418;7.286;2023-07-20T10:35:21;41.10;;;39.17;;
55537;SDS011;41383;51.418;7.286;2023-07-20T10:40:24;49.70;;;47.55;;
55537;SDS011;41383;51.418;7.286;2023-07-20T10:42:51;43.50;;;41.55;;
55537;SDS011;41383;51.418;7.286;2023-07-20T10:45:20;79.45;;;76.13;;
55537;SDS011;41383;51.418;7.286;2023-07-20T10:47:46;25.90;;;24.60;;
55537;SDS011;41383;51.418;7.286;2023-07-20T10:50:12;28.33;;;26.95;;
55537;SDS011;41383;51.418;7.286;2023-07-20T10:52:37;23.13;;;21.85;;
55537;SDS011;41383;51.418;7.286;2023-07-20T10:55:11;19.77;;;18.67;;
55537;SDS011;41383;51.418;7.286;2023-07-20T10:57:40;25.50;;;24.20;;
55537;SDS011;41383;51.418;7.286;2023-07-20T11:00:09;15.98;;;15.07;;
55537;SDS011;41383;51.418;7.286;2023-07-20T11:02:48;27.75;;;26.45;;
55537;SDS011;41383;51.418;7.286;2023-07-20T11:05:31;15.40;;;14.50;;
55537;SDS011;41383;51.418;7.286;2023-07-20T11:08:04;28.98;;;27.65;;
55537;SDS011;41383;51.418;7.286;2023-07-20T11:10:31;62.80;;;60.13;;
55537;SDS011;41383;51.418;7.286;2023-07-20T11:15:45;65.93;;;63.30;;
55537;SDS011;41383;51.418;7.286;2023-07-20T11:18:26;128.40;;;123.35;;
55537;SDS011;41383;51.418;7.286;2023-07-20T11:20:52;86.25;;;82.60;;
55537;SDS011;41383;51.418;7.286;2023-07-20T11:23:19;128.13;;;122.97;;
55537;SDS011;41383;51.418;7.286;2023-07-20T11:25:45;228.50;;;219.07;;
55537;SDS011;41383;51.418;7.286;2023-07-20T11:28:10;354.23;;;325.23;;
55537;SDS011;41383;51.418;7.286;2023-07-20T11:30:36;277.33;;;264.80;;
55537;SDS011;41383;51.418;7.286;2023-07-20T11:33:03;288.63;;;275.45;;
55537;SDS011;41383;51.418;7.286;2023-07-20T11:35:29;418.00;;;397.38;;
55537;SDS011;41383;51.418;7.286;2023-07-20T11:37:55;320.45;;;306.90;;
55537;SDS011;41383;51.418;7.286;2023-07-20T11:40:21;591.60;;;556.55;;
55537;SDS011;41383;51.418;7.286;2023-07-20T11:42:47;530.58;;;502.02;;
55537;SDS011;41383;51.418;7.286;2023-07-20T11:45:15;178.80;;;171.63;;
55537;SDS011;41383;51.418;7.286;2023-07-20T11:47:41;182.65;;;174.85;;
55537;SDS011;41383;51.418;7.286;2023-07-20T11:50:09;328.40;;;314.63;;
55537;SDS011;41383;51.418;7.286;2023-07-20T11:52:36;514.83;;;487.02;;
55537;SDS011;41383;51.418;7.286;2023-07-20T11:55:02;517.05;;;488.15;;
55537;SDS011;41383;51.418;7.286;2023-07-20T11:57:28;65.38;;;62.70;;
55537;SDS011;41383;51.418;7.286;2023-07-20T11:59:57;577.90;;;543.60;;
55537;SDS011;41383;51.418;7.286;2023-07-20T12:02:27;21.65;;;20.60;;
55537;SDS011;41383;51.418;7.286;2023-07-20T12:04:56;23.50;;;22.35;;
55537;SDS011;41383;51.418;7.286;2023-07-20T12:07:22;44.08;;;42.30;;
55537;SDS011;41383;51.418;7.286;2023-07-20T12:12:49;6.03;;;5.63;;
55537;SDS011;41383;51.418;7.286;2023-07-20T12:17:54;15.68;;;14.88;;
55537;SDS011;41383;51.418;7.286;2023-07-20T12:20:25;37.42;;;35.92;;
55537;SDS011;41383;51.418;7.286;2023-07-20T12:22:50;26.52;;;25.15;;
55537;SDS011;41383;51.418;7.286;2023-07-20T12:25:15;47.70;;;45.63;;
55537;SDS011;41383;51.418;7.286;2023-07-20T12:27:44;83.88;;;80.40;;
55537;SDS011;41383;51.418;7.286;2023-07-20T12:30:09;25.00;;;23.73;;
55537;SDS011;41383;51.418;7.286;2023-07-20T12:32:34;3.85;;;3.42;;
55537;SDS011;41383;51.418;7.286;2023-07-20T12:35:00;6.20;;;5.70;;
55537;SDS011;41383;51.418;7.286;2023-07-20T12:37:25;4.35;;;3.70;;
55537;SDS011;41383;51.418;7.286;2023-07-20T12:39:51;7.15;;;6.63;;
55537;SDS011;41383;51.418;7.286;2023-07-20T12:42:17;29.13;;;27.55;;
55537;SDS011;41383;51.418;7.286;2023-07-20T12:44:42;7.50;;;2.67;;
55537;SDS011;41383;51.418;7.286;2023-07-20T12:47:07;2.63;;;2.17;;
55537;SDS011;41383;51.418;7.286;2023-07-20T12:49:33;3.05;;;2.13;;
55537;SDS011;41383;51.418;7.286;2023-07-20T12:51:58;2.33;;;1.90;;
55537;SDS011;41383;51.418;7.286;2023-07-20T12:54:23;2.75;;;1.63;;
55537;SDS011;41383;51.418;7.286;2023-07-20T12:56:48;3.60;;;2.33;;
55537;SDS011;41383;51.418;7.286;2023-07-20T12:59:14;2.27;;;2.03;;
55537;SDS011;41383;51.418;7.286;2023-07-20T13:01:39;3.67;;;3.38;;
55537;SDS011;41383;51.418;7.286;2023-07-20T13:04:06;2.45;;;1.77;;
55537;SDS011;41383;51.418;7.286;2023-07-20T13:06:34;2.33;;;1.55;;
55537;SDS011;41383;51.418;7.286;2023-07-20T13:08:59;3.25;;;1.90;;
55537;SDS011;41383;51.418;7.286;2023-07-20T13:11:25;3.90;;;1.90;;
55537;SDS011;41383;51.418;7.286;2023-07-20T13:13:50;2.87;;;2.00;;
55537;SDS011;41383;51.418;7.286;2023-07-20T13:16:15;10.50;;;2.50;;
55537;SDS011;41383;51.418;7.286;2023-07-20T13:18:41;4.10;;;1.42;;
55537;SDS011;41383;51.418;7.286;2023-07-20T13:21:07;2.77;;;1.80;;
55537;SDS011;41383;51.418;7.286;2023-07-20T13:23:35;9.75;;;9.20;;
55537;SDS011;41383;51.418;7.286;2023-07-20T13:26:01;18.92;;;18.00;;
55537;SDS011;41383;51.418;7.286;2023-07-20T13:28:26;5.70;;;4.88;;
55537;SDS011;41383;51.418;7.286;2023-07-20T13:30:52;9.02;;;8.43;;
55537;SDS011;41383;51.418;7.286;2023-07-20T13:33:17;11.45;;;10.77;;
55537;SDS011;41383;51.418;7.286;2023-07-20T13:35:42;10.30;;;9.60;;
55537;SDS011;41383;51.418;7.286;2023-07-20T13:38:07;9.43;;;8.83;;
55537;SDS011;41383;51.418;7.286;2023-07-20T13:40:33;13.70;;;13.00;;
55537;SDS011;41383;51.418;7.286;2023-07-20T13:42:58;9.73;;;7.90;;
55537;SDS011;41383;51.418;7.286;2023-07-20T13:45:23;14.77;;;13.87;;
55537;SDS011;41383;51.418;7.286;2023-07-20T13:47:48;22.27;;;20.75;;
55537;SDS011;41383;51.418;7.286;2023-07-20T13:50:14;12.03;;;11.10;;
55537;SDS011;41383;51.418;7.286;2023-07-20T13:52:40;6.13;;;5.68;;
55537;SDS011;41383;51.418;7.286;2023-07-20T13:55:05;27.00;;;25.80;;
55537;SDS011;41383;51.418;7.286;2023-07-20T13:57:31;11.18;;;9.38;;
55537;SDS011;41383;51.418;7.286;2023-07-20T13:59:57;13.30;;;12.52;;
55537;SDS011;41383;51.418;7.286;2023-07-20T14:02:22;8.00;;;7.43;;
55537;SDS011;41383;51.418;7.286;2023-07-20T14:04:47;6.75;;;5.65;;
55537;SDS011;41383;51.418;7.286;2023-07-20T14:07:13;8.93;;;8.32;;
55537;SDS011;41383;51.418;7.286;2023-07-20T14:09:38;17.05;;;16.10;;
55537;SDS011;41383;51.418;7.286;2023-07-20T14:12:04;15.25;;;14.35;;
55537;SDS011;41383;51.418;7.286;2023-07-20T14:14:29;6.25;;;5.78;;
55537;SDS011;41383;51.418;7.286;2023-07-20T14:16:55;8.43;;;7.83;;
55537;SDS011;41383;51.418;7.286;2023-07-20T14:19:21;4.45;;;4.05;;
55537;SDS011;41383;51.418;7.286;2023-07-20T14:21:46;4.85;;;4.45;;
55537;SDS011;41383;51.418;7.286;2023-07-20T14:24:12;15.80;;;14.80;;
55537;SDS011;41383;51.418;7.286;2023-07-20T14:26:37;13.73;;;12.93;;
55537;SDS011;41383;51.418;7.286;2023-07-20T14:29:02;5.97;;;5.50;;
55537;SDS011;41383;51.418;7.286;2023-07-20T14:31:27;4.60;;;4.13;;
55537;SDS011;41383;51.418;7.286;2023-07-20T14:33:53;24.57;;;23.47;;
55537;SDS011;41383;51.418;7.286;2023-07-20T14:36:18;15.50;;;14.60;;
55537;SDS011;41383;51.418;7.286;2023-07-20T14:38:43;8.68;;;8.10;;
55537;SDS011;41383;51.418;7.286;2023-07-20T14:41:08;14.13;;;13.38;;